createdAt,value
2023-10-07T00:01:03.569Z,98695.42
2023-10-07T00:03:40.339Z,98698.05
2023-10-07T00:06:11.309Z,98700.66
2023-10-07T00:08:40.231Z,98697.66
2023-10-07T00:11:13.131Z,98690.11
2023-10-07T00:13:44.649Z,98686.50
2023-10-07T00:16:15.940Z,98683.41
2023-10-07T00:18:44.813Z,98681.38
2023-10-07T00:21:28.374Z,98675.67
2023-10-07T00:23:59.045Z,98677.85
2023-10-07T00:26:28.164Z,98671.95
2023-10-07T00:29:03.432Z,98667.92
2023-10-07T00:31:35.393Z,98666.73
2023-10-07T00:34:07.005Z,98665.77
2023-10-07T00:36:35.212Z,98667.92
2023-10-07T00:39:10.891Z,98669.05
2023-10-07T00:41:46.562Z,98671.89
2023-10-07T00:44:24.747Z,98670.54
2023-10-07T00:47:17.382Z,98673.15
2023-10-07T00:49:50.121Z,98675.19
2023-10-07T00:52:29.934Z,98668.86
2023-10-07T00:55:09.768Z,98666.07
2023-10-07T00:57:38.738Z,98665.44
2023-10-07T01:00:24.442Z,98667.85
2023-10-07T01:03:05.187Z,98667.19
2023-10-07T01:05:36.966Z,98667.77
2023-10-07T01:08:07.692Z,98664.21
2023-10-07T01:10:39.888Z,98663.64
2023-10-07T01:13:27.189Z,98662.47
2023-10-07T01:15:55.381Z,98657.22
2023-10-07T01:18:23.703Z,98649.11
2023-10-07T01:20:51.826Z,98646.64
2023-10-07T01:23:24.244Z,98644.07
2023-10-07T01:25:52.448Z,98641.27
2023-10-07T01:28:22.352Z,98637.50
2023-10-07T01:31:10.941Z,98637.45
2023-10-07T01:33:40.722Z,98635.74
2023-10-07T01:36:17.726Z,98633.55
2023-10-07T01:38:52.230Z,98624.63
2023-10-07T01:41:23.311Z,98621.77
2023-10-07T01:44:01.633Z,98616.27
2023-10-07T01:46:32.440Z,98616.96
2023-10-07T01:49:05.494Z,98611.10
2023-10-07T01:51:34.015Z,98601.95
2023-10-07T01:54:05.449Z,98598.77
2023-10-07T01:56:34.637Z,98596.63
2023-10-07T01:59:15.165Z,98593.79
2023-10-07T02:02:05.008Z,98591.86
2023-10-07T02:04:34.488Z,98594.45
2023-10-07T02:07:03.708Z,98599.95
2023-10-07T02:09:37.758Z,98603.86
2023-10-07T02:12:10.575Z,98609.73
2023-10-07T02:14:40.023Z,98616.15
2023-10-07T02:17:09.934Z,98613.63
2023-10-07T02:19:41.711Z,98614.04
2023-10-07T02:22:21.927Z,98616.81
2023-10-07T02:25:01.580Z,98615.40
2023-10-07T02:27:39.191Z,98613.36
2023-10-07T02:30:17.730Z,98615.13
2023-10-07T02:32:48.054Z,98621.54
2023-10-07T02:35:21.494Z,98619.05
2023-10-07T02:37:52.590Z,98619.85
2023-10-07T02:40:23.465Z,98622.34
2023-10-07T02:42:53.089Z,98621.82
2023-10-07T02:45:26.006Z,98619.81
2023-10-07T02:48:02.074Z,98623.14
2023-10-07T02:50:32.730Z,98625.09
2023-10-07T02:53:04.190Z,98624.84
2023-10-07T02:55:46.453Z,98617.92
2023-10-07T02:58:28.608Z,98618.16
2023-10-07T03:01:12.115Z,98615.46
2023-10-07T03:03:50.414Z,98612.08
2023-10-07T03:06:18.910Z,98609.81
2023-10-07T03:08:47.207Z,98609.20
2023-10-07T03:11:25.302Z,98610.77
2023-10-07T03:14:00.403Z,98608.08
2023-10-07T03:16:29.734Z,98610.65
2023-10-07T03:19:03.954Z,98605.34
2023-10-07T03:21:41.507Z,98603.68
2023-10-07T03:24:12.823Z,98604.61
2023-10-07T03:26:44.084Z,98604.78
2023-10-07T03:29:30.355Z,98599.64
2023-10-07T03:32:01.288Z,98595.65
2023-10-07T03:34:29.754Z,98596.68
2023-10-07T03:37:09.759Z,98597.27
2023-10-07T03:39:58.298Z,98599.23
2023-10-07T03:42:26.583Z,98597.27
2023-10-07T03:44:54.754Z,98597.15
2023-10-07T03:47:23.103Z,98597.93
2023-10-07T03:49:54.903Z,98597.64
2023-10-07T03:52:29.290Z,98595.53
2023-10-07T03:55:01.200Z,98592.58
2023-10-07T03:57:29.604Z,98593.48
2023-10-07T03:59:59.367Z,98595.37
2023-10-07T04:02:30.849Z,98593.88
2023-10-07T04:05:11.028Z,98588.58
2023-10-07T04:07:39.924Z,98590.97
2023-10-07T04:10:20.703Z,98595.04
2023-10-07T04:12:50.250Z,98593.33
2023-10-07T04:15:19.510Z,98591.89
2023-10-07T04:17:49.924Z,98586.61
2023-10-07T04:20:23.377Z,98588.14
2023-10-07T04:23:02.402Z,98588.39
2023-10-07T04:25:32.427Z,98587.55
2023-10-07T04:28:00.901Z,98587.95
2023-10-07T04:30:40.187Z,98585.69
2023-10-07T04:33:11.261Z,98582.13
2023-10-07T04:35:40.185Z,98582.58
2023-10-07T04:38:20.201Z,98584.79
2023-10-07T04:41:06.857Z,98586.89
2023-10-07T04:43:39.012Z,98589.45
2023-10-07T04:46:23.570Z,98590.44
2023-10-07T04:49:14.254Z,98596.05
2023-10-07T04:51:42.681Z,98600.06
2023-10-07T04:54:24.014Z,98601.52
2023-10-07T04:56:55.271Z,98607.33
2023-10-07T04:59:25.363Z,98602.86
2023-10-07T05:02:13.752Z,98598.21
2023-10-07T05:04:43.052Z,98597.73
2023-10-07T05:07:12.120Z,98602.69
2023-10-07T05:09:40.182Z,98596.61
2023-10-07T05:12:08.926Z,98601.70
2023-10-07T05:14:37.518Z,98600.74
2023-10-07T05:17:11.621Z,98603.08
2023-10-07T05:19:39.834Z,98606.74
2023-10-07T05:22:15.988Z,98605.40
2023-10-07T05:24:48.116Z,98608.16
2023-10-07T05:27:17.087Z,98610.66
2023-10-07T05:29:48.004Z,98610.41
2023-10-07T05:32:18.372Z,98609.86
2023-10-07T05:34:49.816Z,98606.84
2023-10-07T05:37:18.105Z,98605.45
2023-10-07T05:39:46.800Z,98608.66
2023-10-07T05:42:14.934Z,98604.22
2023-10-07T05:44:43.049Z,98606.59
2023-10-07T05:47:11.642Z,98607.86
2023-10-07T05:49:40.221Z,98602.17
2023-10-07T05:52:08.633Z,98594.55
2023-10-07T05:54:36.924Z,98598.10
2023-10-07T05:57:06.872Z,98602.92
2023-10-07T05:59:35.920Z,98603.35
2023-10-07T06:02:08.718Z,98606.10
2023-10-07T06:04:37.412Z,98607.73
2023-10-07T06:07:08.853Z,98609.14
2023-10-07T06:09:43.221Z,98610.08
2023-10-07T06:12:13.394Z,98612.46
2023-10-07T06:14:41.818Z,98608.16
2023-10-07T06:17:12.920Z,98610.48
2023-10-07T06:19:41.751Z,98612.18
2023-10-07T06:22:13.411Z,98610.08
2023-10-07T06:24:43.073Z,98605.46
2023-10-07T06:27:21.449Z,98605.08
2023-10-07T06:29:51.896Z,98602.80
2023-10-07T06:32:27.330Z,98604.76
2023-10-07T06:35:00.693Z,98604.70
2023-10-07T06:37:31.815Z,98602.63
2023-10-07T06:40:01.704Z,98599.52
2023-10-07T06:42:30.152Z,98597.67
2023-10-07T06:45:03.774Z,98596.44
2023-10-07T06:47:33.546Z,98591.93
2023-10-07T06:50:04.936Z,98591.46
2023-10-07T06:52:34.106Z,98582.39
2023-10-07T06:55:09.197Z,98583.60
2023-10-07T06:57:38.740Z,98583.70
2023-10-07T07:00:13.212Z,98587.54
2023-10-07T07:02:45.138Z,98579.36
2023-10-07T07:05:17.394Z,98578.71
2023-10-07T07:07:48.945Z,98580.20
2023-10-07T07:10:17.765Z,98578.16
2023-10-07T07:12:46.211Z,98583.29
2023-10-07T07:15:27.899Z,98583.80
2023-10-07T07:18:14.666Z,98582.93
2023-10-07T07:20:50.602Z,98583.59
2023-10-07T07:23:22.650Z,98579.90
2023-10-07T07:26:07.778Z,98576.34
2023-10-07T07:28:36.127Z,98577.16
2023-10-07T07:31:11.982Z,98579.05
2023-10-07T07:33:40.392Z,98572.73
2023-10-07T07:36:20.634Z,98568.82
2023-10-07T07:38:49.052Z,98567.14
2023-10-07T07:41:35.611Z,98570.45
2023-10-07T07:44:11.414Z,98566.39
2023-10-07T07:46:57.342Z,98566.06
2023-10-07T07:49:29.335Z,98565.25
2023-10-07T07:51:57.816Z,98566.57
2023-10-07T07:54:26.207Z,98563.95
2023-10-07T07:56:56.358Z,98560.64
2023-10-07T07:59:25.577Z,98556.95
2023-10-07T08:02:03.663Z,98551.34
2023-10-07T08:04:51.324Z,98545.31
2023-10-07T08:07:28.833Z,98542.98
2023-10-07T08:10:05.813Z,98546.07
2023-10-07T08:12:37.100Z,98548.88
2023-10-07T08:15:14.950Z,98547.77
2023-10-07T08:17:46.551Z,98545.91
2023-10-07T08:20:16.240Z,98545.28
2023-10-07T08:22:47.563Z,98548.80
2023-10-07T08:25:34.648Z,98547.90
2023-10-07T08:28:19.535Z,98540.11
2023-10-07T08:30:50.603Z,98533.37
2023-10-07T08:33:25.061Z,98534.41
2023-10-07T08:35:53.199Z,98533.29
2023-10-07T08:38:22.882Z,98534.12
2023-10-07T08:41:06.076Z,98532.13
2023-10-07T08:43:39.275Z,98527.94
2023-10-07T08:46:13.705Z,98524.17
2023-10-07T08:48:50.877Z,98521.84
2023-10-07T08:51:24.146Z,98517.80
2023-10-07T08:53:58.701Z,98512.84
2023-10-07T08:56:29.680Z,98511.62
2023-10-07T08:58:58.421Z,98509.71
2023-10-07T09:01:27.616Z,98507.55
2023-10-07T09:04:02.270Z,98499.45
2023-10-07T09:06:34.042Z,98495.48
2023-10-07T09:09:07.970Z,98490.11
2023-10-07T09:11:40.766Z,98490.44
2023-10-07T09:14:11.575Z,98486.33
2023-10-07T09:16:43.786Z,98486.27
2023-10-07T09:19:14.411Z,98481.80
2023-10-07T09:21:46.312Z,98482.14
2023-10-07T09:24:26.829Z,98477.61
2023-10-07T09:26:58.229Z,98473.73
2023-10-07T09:29:30.491Z,98473.01
2023-10-07T09:32:06.021Z,98473.98
2023-10-07T09:34:48.954Z,98471.84
2023-10-07T09:37:27.728Z,98469.17
2023-10-07T09:39:56.876Z,98466.34
2023-10-07T09:42:28.327Z,98464.23
2023-10-07T09:45:22.224Z,98458.70
2023-10-07T09:47:50.409Z,98453.14
2023-10-07T09:50:28.814Z,98451.70
2023-10-07T09:53:23.011Z,98445.98
2023-10-07T09:56:22.282Z,98436.33
2023-10-07T09:59:15.323Z,98435.64
2023-10-07T10:02:28.404Z,98433.28
2023-10-07T10:05:27.641Z,98422.83
2023-10-07T10:08:14.380Z,98420.73
2023-10-07T10:10:46.170Z,98416.54
2023-10-07T10:13:31.334Z,98408.41
2023-10-07T10:16:05.673Z,98404.06
2023-10-07T10:18:37.151Z,98397.84
2023-10-07T10:21:07.092Z,98394.73
2023-10-07T10:23:35.403Z,98395.35
2023-10-07T10:26:15.809Z,98385.95
2023-10-07T10:29:01.718Z,98379.91
2023-10-07T10:31:33.629Z,98377.27
2023-10-07T10:34:16.047Z,98375.05
2023-10-07T10:36:50.642Z,98367.98
2023-10-07T10:39:42.319Z,98361.15
2023-10-07T10:42:16.265Z,98360.04
2023-10-07T10:44:49.033Z,98350.38
2023-10-07T10:47:19.756Z,98337.64
2023-10-07T10:49:55.755Z,98334.52
2023-10-07T10:52:24.139Z,98324.52
2023-10-07T10:54:54.249Z,98314.88
2023-10-07T10:57:25.301Z,98313.88
2023-10-07T10:59:53.727Z,98306.59
2023-10-07T11:02:22.906Z,98300.45
2023-10-07T11:04:52.671Z,98293.77
2023-10-07T11:07:22.927Z,98296.45
2023-10-07T11:09:55.358Z,98296.07
2023-10-07T11:12:28.658Z,98288.47
2023-10-07T11:15:14.829Z,98283.53
2023-10-07T11:17:54.150Z,98276.02
2023-10-07T11:20:25.594Z,98268.89
2023-10-07T11:22:54.714Z,98264.39
2023-10-07T11:25:29.480Z,98261.79
2023-10-07T11:27:59.932Z,98257.36
2023-10-07T11:30:28.136Z,98257.00
2023-10-07T11:32:56.280Z,98254.52
2023-10-07T11:35:31.646Z,98258.60
2023-10-07T11:38:00.263Z,98259.44
2023-10-07T11:40:31.796Z,98258.05
2023-10-07T11:43:05.934Z,98259.42
2023-10-07T11:45:34.817Z,98250.58
2023-10-07T11:48:05.877Z,98247.05
2023-10-07T11:50:36.538Z,98241.60
2023-10-07T11:53:08.142Z,98238.79
2023-10-07T11:55:37.032Z,98236.61
2023-10-07T11:58:09.201Z,98235.55
2023-10-07T12:00:38.036Z,98231.42
2023-10-07T12:03:09.911Z,98229.15
2023-10-07T12:05:44.288Z,98226.16
2023-10-07T12:08:15.294Z,98225.02
2023-10-07T12:10:43.522Z,98216.94
2023-10-07T12:13:16.267Z,98219.77
2023-10-07T12:18:15.546Z,98219.58
2023-10-07T12:20:44.278Z,98221.75
2023-10-07T12:23:12.515Z,98218.97
2023-10-07T12:25:42.842Z,98217.33
2023-10-07T12:28:11.091Z,98213.50
2023-10-07T12:30:39.102Z,98215.00
2023-10-07T12:33:17.410Z,98214.09
2023-10-07T12:35:52.526Z,98212.66
2023-10-07T12:38:21.674Z,98209.41
2023-10-07T12:40:50.145Z,98197.49
2023-10-07T12:43:18.381Z,98190.46
2023-10-07T12:45:49.000Z,98185.69
2023-10-07T12:48:17.391Z,98180.77
2023-10-07T12:50:51.412Z,98182.52
2023-10-07T12:53:19.985Z,98177.73
2023-10-07T12:55:50.536Z,98177.57
2023-10-07T12:58:19.683Z,98173.95
2023-10-07T13:00:52.980Z,98168.08
2023-10-07T13:03:21.241Z,98166.58
2023-10-07T13:05:49.668Z,98163.64
2023-10-07T13:08:17.865Z,98160.55
2023-10-07T13:10:47.445Z,98158.99
2023-10-07T13:13:15.863Z,98154.83
2023-10-07T13:15:44.892Z,98153.98
2023-10-07T13:18:14.585Z,98158.48
2023-10-07T13:20:42.945Z,98154.33
2023-10-07T13:23:13.099Z,98159.98
2023-10-07T13:25:41.571Z,98157.86
2023-10-07T13:28:11.348Z,98158.34
2023-10-07T13:30:40.239Z,98158.70
2023-10-07T13:33:08.531Z,98155.97
2023-10-07T13:35:38.846Z,98152.22
2023-10-07T13:38:12.045Z,98151.16
2023-10-07T13:40:40.345Z,98150.55
2023-10-07T13:43:11.117Z,98157.77
2023-10-07T13:45:39.288Z,98154.26
2023-10-07T13:48:09.046Z,98158.82
2023-10-07T13:50:40.726Z,98157.98
2023-10-07T13:53:08.940Z,98158.77
2023-10-07T13:55:43.599Z,98161.30
2023-10-07T13:58:16.021Z,98163.83
2023-10-07T14:00:55.231Z,98157.91
2023-10-07T14:03:33.089Z,98155.05
2023-10-07T14:06:03.679Z,98157.48
2023-10-07T14:08:37.208Z,98156.78
2023-10-07T14:11:08.116Z,98150.70
2023-10-07T14:13:37.691Z,98150.16
2023-10-07T14:18:47.710Z,98146.58
2023-10-07T14:21:16.164Z,98136.55
2023-10-07T14:23:44.467Z,98126.38
2023-10-07T14:26:15.743Z,98126.47
2023-10-07T14:28:47.054Z,98126.18
2023-10-07T14:31:19.882Z,98117.14
2023-10-07T14:33:48.791Z,98117.96
2023-10-07T14:36:16.916Z,98116.41
2023-10-07T14:38:45.140Z,98110.34
2023-10-07T14:41:14.741Z,98104.89
2023-10-07T14:43:44.828Z,98106.34
2023-10-07T14:46:13.258Z,98106.50
2023-10-07T14:48:46.194Z,98103.34
2023-10-07T14:51:15.194Z,98103.55
2023-10-07T14:53:43.385Z,98103.00
2023-10-07T14:56:12.601Z,98102.86
2023-10-07T14:58:41.383Z,98108.25
2023-10-07T15:01:10.419Z,98113.07
2023-10-07T15:03:38.438Z,98117.31
2023-10-07T15:06:16.889Z,98117.95
2023-10-07T15:08:45.903Z,98120.42
2023-10-07T15:11:19.275Z,98119.96
2023-10-07T15:13:50.948Z,98116.68
2023-10-07T15:16:22.370Z,98122.21
2023-10-07T15:18:51.229Z,98125.05
2023-10-07T15:21:22.698Z,98127.98
2023-10-07T15:23:51.446Z,98127.24
2023-10-07T15:26:19.910Z,98133.52
2023-10-07T15:28:49.688Z,98138.49
2023-10-07T15:31:26.732Z,98134.53
2023-10-07T15:33:57.445Z,98135.13
2023-10-07T15:36:26.103Z,98128.04
2023-10-07T15:38:54.492Z,98128.83
2023-10-07T15:41:22.612Z,98131.26
2023-10-07T15:43:51.491Z,98135.29
2023-10-07T15:46:19.735Z,98133.92
2023-10-07T15:48:48.799Z,98139.34
2023-10-07T15:51:19.126Z,98136.98
2023-10-07T15:53:47.422Z,98135.98
2023-10-07T15:56:19.130Z,98139.39
2023-10-07T15:58:48.845Z,98144.19
2023-10-07T16:01:17.334Z,98147.81
2023-10-07T16:03:45.730Z,98143.92
2023-10-07T16:06:16.340Z,98140.51
2023-10-07T16:08:45.936Z,98139.44
2023-10-07T16:11:19.331Z,98140.20
2023-10-07T16:13:47.884Z,98139.58
2023-10-07T16:16:16.587Z,98135.88
2023-10-07T16:18:46.840Z,98137.19
2023-10-07T16:21:17.436Z,98141.58
2023-10-07T16:23:46.078Z,98141.39
2023-10-07T16:26:15.637Z,98143.13
2023-10-07T16:28:45.338Z,98145.14
2023-10-07T16:31:14.618Z,98147.30
2023-10-07T16:33:43.685Z,98146.63
2023-10-07T16:36:11.838Z,98147.08
2023-10-07T16:38:42.416Z,98144.16
2023-10-07T16:41:18.643Z,98140.19
2023-10-07T16:43:47.180Z,98137.27
2023-10-07T16:46:16.230Z,98137.77
2023-10-07T16:48:44.582Z,98136.92
2023-10-07T16:51:14.568Z,98133.77
2023-10-07T16:53:43.707Z,98129.05
2023-10-07T16:56:14.164Z,98130.52
2023-10-07T16:58:42.661Z,98130.19
2023-10-07T17:01:11.526Z,98129.32
2023-10-07T17:03:39.787Z,98131.23
2023-10-07T17:06:08.308Z,98136.64
2023-10-07T17:08:37.250Z,98139.73
2023-10-07T17:11:05.784Z,98138.06
2023-10-07T17:13:33.953Z,98137.38
2023-10-07T17:16:02.211Z,98135.97
2023-10-07T17:18:30.399Z,98135.80
2023-10-07T17:21:00.718Z,98138.44
2023-10-07T17:23:29.425Z,98125.88
2023-10-07T17:25:57.608Z,98119.87
2023-10-07T17:28:26.236Z,98118.27
2023-10-07T17:30:54.579Z,98122.09
2023-10-07T17:33:22.835Z,98123.77
2023-10-07T17:35:51.524Z,98121.74
2023-10-07T17:38:22.769Z,98116.43
2023-10-07T17:40:50.853Z,98109.56
2023-10-07T17:43:19.261Z,98106.61
2023-10-07T17:45:47.371Z,98103.77
2023-10-07T17:48:19.131Z,98099.14
2023-10-07T17:50:47.382Z,98097.36
2023-10-07T17:53:17.316Z,98106.38
2023-10-07T17:55:46.068Z,98103.70
2023-10-07T17:58:14.289Z,98099.77
2023-10-07T18:00:42.482Z,98095.23
2023-10-07T18:03:13.741Z,98097.31
2023-10-07T18:05:44.248Z,98098.39
2023-10-07T18:08:12.457Z,98094.87
2023-10-07T18:10:40.915Z,98093.02
2023-10-07T18:13:09.130Z,98094.85
2023-10-07T18:15:41.917Z,98096.86
2023-10-07T18:18:10.552Z,98094.74
2023-10-07T18:20:38.712Z,98092.72
2023-10-07T18:23:07.034Z,98091.90
2023-10-07T18:25:37.278Z,98092.89
2023-10-07T18:28:05.436Z,98094.08
2023-10-07T18:30:33.684Z,98094.34
2023-10-07T18:33:03.523Z,98093.20
2023-10-07T18:35:32.496Z,98093.96
2023-10-07T18:38:01.386Z,98091.13
2023-10-07T18:40:29.662Z,98089.61
2023-10-07T18:42:57.878Z,98083.92
2023-10-07T18:45:25.887Z,98086.01
2023-10-07T18:47:57.533Z,98085.90
2023-10-07T18:50:26.755Z,98084.69
2023-10-07T18:52:55.062Z,98085.24
2023-10-07T18:55:23.322Z,98086.41
2023-10-07T18:57:52.160Z,98091.51
2023-10-07T19:00:20.332Z,98091.63
2023-10-07T19:02:48.752Z,98089.70
2023-10-07T19:05:17.348Z,98087.02
2023-10-07T19:07:46.619Z,98085.92
2023-10-07T19:10:17.158Z,98082.89
2023-10-07T19:12:48.239Z,98082.90
2023-10-07T19:15:17.429Z,98078.91
2023-10-07T19:17:48.895Z,98076.14
2023-10-07T19:20:17.361Z,98068.92
2023-10-07T19:22:45.473Z,98067.69
2023-10-07T19:25:15.427Z,98074.88
2023-10-07T19:27:44.210Z,98078.05
2023-10-07T19:30:14.849Z,98072.73
2023-10-07T19:32:43.871Z,98069.27
2023-10-07T19:35:14.660Z,98071.21
2023-10-07T19:37:42.774Z,98072.73
2023-10-07T19:40:11.720Z,98076.09
2023-10-07T19:42:40.692Z,98077.00
2023-10-07T19:45:11.254Z,98080.66
2023-10-07T19:47:44.370Z,98078.75
2023-10-07T19:50:12.713Z,98076.84
2023-10-07T19:52:41.646Z,98072.95
2023-10-07T19:55:10.180Z,98070.98
2023-10-07T19:57:38.333Z,98067.16
2023-10-07T20:00:07.808Z,98066.52
2023-10-07T20:02:36.870Z,98065.30
2023-10-07T20:05:05.663Z,98063.98
2023-10-07T20:07:36.977Z,98060.55
2023-10-07T20:10:10.373Z,98061.02
2023-10-07T20:12:40.657Z,98058.05
2023-10-07T20:15:09.768Z,98052.95
2023-10-07T20:17:39.884Z,98051.63
2023-10-07T20:20:11.719Z,98049.44
2023-10-07T20:22:40.798Z,98043.00
2023-10-07T20:25:10.198Z,98043.79
2023-10-07T20:27:40.101Z,98043.16
2023-10-07T20:30:08.849Z,98042.64
2023-10-07T20:32:37.738Z,98045.05
2023-10-07T20:35:09.608Z,98047.51
2023-10-07T20:37:38.536Z,98046.64
2023-10-07T20:40:08.358Z,98042.02
2023-10-07T20:42:36.513Z,98044.30
2023-10-07T20:45:05.922Z,98037.99
2023-10-07T20:47:34.779Z,98038.73
2023-10-07T20:50:07.987Z,98036.55
2023-10-07T20:52:36.757Z,98037.04
2023-10-07T20:55:06.549Z,98038.21
2023-10-07T20:57:35.467Z,98037.77
2023-10-07T21:00:06.272Z,98034.59
2023-10-07T21:02:35.305Z,98036.61
2023-10-07T21:05:03.542Z,98033.38
2023-10-07T21:07:32.202Z,98034.81
2023-10-07T21:10:00.381Z,98030.20
2023-10-07T21:12:28.556Z,98027.48
2023-10-07T21:14:56.648Z,98020.15
2023-10-07T21:17:25.154Z,98014.91
2023-10-07T21:19:54.483Z,98014.20
2023-10-07T21:22:22.614Z,98017.34
2023-10-07T21:24:50.939Z,98013.52
2023-10-07T21:27:19.014Z,98014.36
2023-10-07T21:29:47.475Z,98008.84
2023-10-07T21:32:16.634Z,98004.39
2023-10-07T21:34:44.772Z,97997.32
2023-10-07T21:37:12.806Z,97995.41
2023-10-07T21:39:40.865Z,97995.35
2023-10-07T21:42:09.037Z,97992.59
2023-10-07T21:44:37.072Z,97990.27
2023-10-07T21:47:05.385Z,97984.04
2023-10-07T21:49:33.736Z,97982.55
2023-10-07T21:52:01.874Z,97980.26
2023-10-07T21:54:30.979Z,97973.33
2023-10-07T21:56:59.065Z,97966.96
2023-10-07T21:59:27.640Z,97960.48
2023-10-07T22:01:55.852Z,97958.83
2023-10-07T22:04:23.968Z,97950.39
2023-10-07T22:06:52.988Z,97948.70
2023-10-07T22:09:21.182Z,97948.90
2023-10-07T22:11:51.174Z,97940.94
2023-10-07T22:14:19.518Z,97940.94
2023-10-07T22:16:47.923Z,97937.76
2023-10-07T22:19:16.634Z,97934.94
2023-10-07T22:21:44.759Z,97931.48
2023-10-07T22:24:15.163Z,97928.84
2023-10-07T22:26:43.258Z,97925.66
2023-10-07T22:29:12.566Z,97922.89
2023-10-07T22:31:48.436Z,97921.34
2023-10-07T22:34:18.780Z,97919.52
2023-10-07T22:36:46.918Z,97909.85
2023-10-07T22:39:32.857Z,97903.62
2023-10-07T22:42:13.326Z,97906.80
2023-10-07T22:44:47.009Z,97898.11
2023-10-07T22:47:15.587Z,97891.10
2023-10-07T22:49:46.942Z,97884.74
2023-10-07T22:52:15.102Z,97879.81
2023-10-07T22:54:51.350Z,97874.34
2023-10-07T22:57:19.503Z,97871.96
2023-10-07T22:59:48.515Z,97865.72
2023-10-07T23:02:26.517Z,97862.55
2023-10-07T23:04:58.358Z,97860.40
2023-10-07T23:07:27.744Z,97860.42
2023-10-07T23:10:00.307Z,97859.95
2023-10-07T23:12:29.666Z,97859.12
2023-10-07T23:15:00.107Z,97857.41
2023-10-07T23:17:32.697Z,97856.56
2023-10-07T23:20:27.890Z,97855.89
2023-10-07T23:23:13.327Z,97848.69
2023-10-07T23:25:43.540Z,97844.70
2023-10-07T23:28:32.125Z,97841.30
2023-10-07T23:31:12.471Z,97842.58
2023-10-07T23:33:40.576Z,97840.48
2023-10-07T23:36:18.773Z,97841.56
2023-10-07T23:38:50.643Z,97836.02
2023-10-07T23:41:26.613Z,97830.19
2023-10-07T23:43:56.247Z,97821.44
2023-10-07T23:46:24.897Z,97814.69
2023-10-07T23:48:58.743Z,97807.48
2023-10-07T23:51:33.350Z,97804.83
2023-10-07T23:54:05.319Z,97796.69
2023-10-07T23:56:34.195Z,97795.41
2023-10-07T23:59:11.029Z,97788.27
